sensor_id;sensor_type;location;lat;lon;timestamp;P1;durP1;ratioP1;P2;durP2;ratioP2
4766;SDS011;2397;53.576;9.746;2022-08-11T00:01:18;3.90;;;3.20;;
4766;SDS011;2397;53.576;9.746;2022-08-11T00:03:47;3.40;;;3.10;;
4766;SDS011;2397;53.576;9.746;2022-08-11T00:06:14;3.20;;;2.97;;
4766;SDS011;2397;53.576;9.746;2022-08-11T00:08:48;4.00;;;3.40;;
4766;SDS011;2397;53.576;9.746;2022-08-11T00:11:13;4.00;;;3.30;;
4766;SDS011;2397;53.576;9.746;2022-08-11T00:13:42;6.17;;;3.10;;
4766;SDS011;2397;53.576;9.746;2022-08-11T00:16:13;3.60;;;3.30;;
4766;SDS011;2397;53.576;9.746;2022-08-11T00:18:42;3.37;;;3.07;;
4766;SDS011;2397;53.576;9.746;2022-08-11T00:21:07;7.73;;;3.43;;
4766;SDS011;2397;53.576;9.746;2022-08-11T00:23:33;11.83;;;3.97;;
4766;SDS011;2397;53.576;9.746;2022-08-11T00:25:58;7.90;;;3.10;;
4766;SDS011;2397;53.576;9.746;2022-08-11T00:28:27;3.37;;;3.07;;
4766;SDS011;2397;53.576;9.746;2022-08-11T00:30:53;5.50;;;3.30;;
4766;SDS011;2397;53.576;9.746;2022-08-11T00:33:19;5.60;;;3.03;;
4766;SDS011;2397;53.576;9.746;2022-08-11T00:35:46;4.83;;;3.40;;
4766;SDS011;2397;53.576;9.746;2022-08-11T00:38:12;4.23;;;3.23;;
4766;SDS011;2397;53.576;9.746;2022-08-11T00:40:41;3.50;;;3.00;;
4766;SDS011;2397;53.576;9.746;2022-08-11T00:45:40;3.50;;;3.10;;
4766;SDS011;2397;53.576;9.746;2022-08-11T01:03:58;6.63;;;3.33;;
4766;SDS011;2397;53.576;9.746;2022-08-11T01:14:04;3.80;;;3.53;;
4766;SDS011;2397;53.576;9.746;2022-08-11T01:22:15;4.20;;;3.80;;
4766;SDS011;2397;53.576;9.746;2022-08-11T01:27:22;8.17;;;3.53;;
4766;SDS011;2397;53.576;9.746;2022-08-11T01:40:14;5.30;;;3.57;;
4766;SDS011;2397;53.576;9.746;2022-08-11T01:48:06;5.50;;;3.60;;
4766;SDS011;2397;53.576;9.746;2022-08-11T01:50:39;3.17;;;2.97;;
4766;SDS011;2397;53.576;9.746;2022-08-11T01:58:42;3.40;;;3.10;;
4766;SDS011;2397;53.576;9.746;2022-08-11T02:01:15;3.97;;;3.50;;
4766;SDS011;2397;53.576;9.746;2022-08-11T02:04:08;4.10;;;3.73;;
4766;SDS011;2397;53.576;9.746;2022-08-11T02:06:44;5.00;;;3.57;;
4766;SDS011;2397;53.576;9.746;2022-08-11T02:11:54;4.10;;;3.70;;
4766;SDS011;2397;53.576;9.746;2022-08-11T02:14:30;3.73;;;3.33;;
4766;SDS011;2397;53.576;9.746;2022-08-11T02:19:47;4.03;;;3.10;;
4766;SDS011;2397;53.576;9.746;2022-08-11T02:22:45;3.80;;;3.50;;
4766;SDS011;2397;53.576;9.746;2022-08-11T02:28:21;6.00;;;4.23;;
4766;SDS011;2397;53.576;9.746;2022-08-11T02:33:47;3.97;;;3.67;;
4766;SDS011;2397;53.576;9.746;2022-08-11T02:36:16;3.40;;;3.20;;
4766;SDS011;2397;53.576;9.746;2022-08-11T02:41:16;6.10;;;3.80;;
4766;SDS011;2397;53.576;9.746;2022-08-11T02:46:31;5.10;;;3.10;;
4766;SDS011;2397;53.576;9.746;2022-08-11T02:52:04;3.83;;;3.53;;
4766;SDS011;2397;53.576;9.746;2022-08-11T02:54:34;3.70;;;3.40;;
4766;SDS011;2397;53.576;9.746;2022-08-11T02:57:15;4.30;;;3.90;;
4766;SDS011;2397;53.576;9.746;2022-08-11T03:02:15;3.90;;;3.60;;
4766;SDS011;2397;53.576;9.746;2022-08-11T03:04:51;4.93;;;3.60;;
4766;SDS011;2397;53.576;9.746;2022-08-11T03:09:45;3.90;;;3.60;;
4766;SDS011;2397;53.576;9.746;2022-08-11T03:12:17;5.53;;;3.87;;
4766;SDS011;2397;53.576;9.746;2022-08-11T03:15:10;5.30;;;3.63;;
4766;SDS011;2397;53.576;9.746;2022-08-11T03:18:00;6.37;;;3.63;;
4766;SDS011;2397;53.576;9.746;2022-08-11T03:20:44;3.53;;;3.33;;
4766;SDS011;2397;53.576;9.746;2022-08-11T03:23:34;4.20;;;3.90;;
4766;SDS011;2397;53.576;9.746;2022-08-11T03:31:36;3.40;;;3.10;;
4766;SDS011;2397;53.576;9.746;2022-08-11T03:34:08;3.90;;;3.60;;
4766;SDS011;2397;53.576;9.746;2022-08-11T03:41:58;4.10;;;3.70;;
4766;SDS011;2397;53.576;9.746;2022-08-11T03:44:31;3.60;;;3.30;;
4766;SDS011;2397;53.576;9.746;2022-08-11T03:47:02;5.73;;;4.03;;
4766;SDS011;2397;53.576;9.746;2022-08-11T03:52:17;5.10;;;3.77;;
4766;SDS011;2397;53.576;9.746;2022-08-11T03:57:20;3.90;;;3.37;;
4766;SDS011;2397;53.576;9.746;2022-08-11T04:05:35;4.73;;;3.90;;
4766;SDS011;2397;53.576;9.746;2022-08-11T04:13:27;3.90;;;3.60;;
4766;SDS011;2397;53.576;9.746;2022-08-11T04:16:15;4.47;;;4.07;;
4766;SDS011;2397;53.576;9.746;2022-08-11T04:24:23;4.73;;;3.80;;
4766;SDS011;2397;53.576;9.746;2022-08-11T04:34:57;3.67;;;3.37;;
4766;SDS011;2397;53.576;9.746;2022-08-11T04:37:31;6.70;;;3.60;;
4766;SDS011;2397;53.576;9.746;2022-08-11T04:40:17;3.50;;;3.20;;
4766;SDS011;2397;53.576;9.746;2022-08-11T04:48:22;4.30;;;3.90;;
4766;SDS011;2397;53.576;9.746;2022-08-11T04:51:21;3.33;;;3.10;;
4766;SDS011;2397;53.576;9.746;2022-08-11T04:57:02;3.83;;;3.50;;
4766;SDS011;2397;53.576;9.746;2022-08-11T05:00:00;3.80;;;3.30;;
4766;SDS011;2397;53.576;9.746;2022-08-11T05:05:34;3.97;;;3.67;;
4766;SDS011;2397;53.576;9.746;2022-08-11T05:13:23;4.00;;;3.50;;
4766;SDS011;2397;53.576;9.746;2022-08-11T05:16:09;4.07;;;3.77;;
4766;SDS011;2397;53.576;9.746;2022-08-11T05:18:54;4.47;;;3.80;;
4766;SDS011;2397;53.576;9.746;2022-08-11T05:21:40;5.90;;;4.00;;
4766;SDS011;2397;53.576;9.746;2022-08-11T05:27:09;3.80;;;3.50;;
4766;SDS011;2397;53.576;9.746;2022-08-11T05:29:58;4.13;;;3.77;;
4766;SDS011;2397;53.576;9.746;2022-08-11T05:32:44;4.77;;;4.00;;
4766;SDS011;2397;53.576;9.746;2022-08-11T05:35:36;4.27;;;3.87;;
4766;SDS011;2397;53.576;9.746;2022-08-11T05:38:02;3.60;;;3.30;;
4766;SDS011;2397;53.576;9.746;2022-08-11T05:40:47;4.33;;;3.93;;
4766;SDS011;2397;53.576;9.746;2022-08-11T05:43:32;5.10;;;4.07;;
4766;SDS011;2397;53.576;9.746;2022-08-11T05:46:17;4.27;;;3.90;;
4766;SDS011;2397;53.576;9.746;2022-08-11T05:49:00;8.57;;;4.10;;
4766;SDS011;2397;53.576;9.746;2022-08-11T05:51:44;6.20;;;4.47;;
4766;SDS011;2397;53.576;9.746;2022-08-11T05:54:28;3.80;;;3.50;;
4766;SDS011;2397;53.576;9.746;2022-08-11T05:57:19;4.27;;;3.50;;
4766;SDS011;2397;53.576;9.746;2022-08-11T05:59:45;3.90;;;3.50;;
4766;SDS011;2397;53.576;9.746;2022-08-11T06:02:11;5.00;;;4.10;;
4766;SDS011;2397;53.576;9.746;2022-08-11T06:04:37;5.07;;;4.00;;
4766;SDS011;2397;53.576;9.746;2022-08-11T06:07:06;4.20;;;3.90;;
4766;SDS011;2397;53.576;9.746;2022-08-11T06:09:37;4.43;;;4.03;;
4766;SDS011;2397;53.576;9.746;2022-08-11T06:12:04;11.80;;;6.23;;
4766;SDS011;2397;53.576;9.746;2022-08-11T06:14:30;7.67;;;4.90;;
4766;SDS011;2397;53.576;9.746;2022-08-11T06:16:57;4.93;;;4.50;;
4766;SDS011;2397;53.576;9.746;2022-08-11T06:19:35;6.07;;;4.30;;
4766;SDS011;2397;53.576;9.746;2022-08-11T06:22:02;4.60;;;4.20;;
4766;SDS011;2397;53.576;9.746;2022-08-11T06:24:28;4.43;;;3.97;;
4766;SDS011;2397;53.576;9.746;2022-08-11T06:26:55;6.73;;;4.37;;
4766;SDS011;2397;53.576;9.746;2022-08-11T06:29:21;4.33;;;3.97;;
4766;SDS011;2397;53.576;9.746;2022-08-11T06:31:55;6.60;;;4.53;;
4766;SDS011;2397;53.576;9.746;2022-08-11T06:34:31;4.90;;;4.33;;
4766;SDS011;2397;53.576;9.746;2022-08-11T06:37:04;5.73;;;4.23;;
4766;SDS011;2397;53.576;9.746;2022-08-11T06:39:43;4.40;;;4.00;;
4766;SDS011;2397;53.576;9.746;2022-08-11T06:42:10;5.43;;;4.17;;
4766;SDS011;2397;53.576;9.746;2022-08-11T06:44:39;7.20;;;4.47;;
4766;SDS011;2397;53.576;9.746;2022-08-11T06:47:08;9.27;;;4.10;;
4766;SDS011;2397;53.576;9.746;2022-08-11T06:49:36;4.27;;;3.87;;
4766;SDS011;2397;53.576;9.746;2022-08-11T06:52:31;4.93;;;4.00;;
4766;SDS011;2397;53.576;9.746;2022-08-11T06:54:58;6.83;;;4.00;;
4766;SDS011;2397;53.576;9.746;2022-08-11T06:57:31;5.83;;;4.17;;
4766;SDS011;2397;53.576;9.746;2022-08-11T07:00:17;6.57;;;4.30;;
4766;SDS011;2397;53.576;9.746;2022-08-11T07:03:02;4.60;;;4.20;;
4766;SDS011;2397;53.576;9.746;2022-08-11T07:13:54;14.40;;;5.10;;
4766;SDS011;2397;53.576;9.746;2022-08-11T07:16:42;8.30;;;4.20;;
4766;SDS011;2397;53.576;9.746;2022-08-11T07:19:08;4.03;;;3.63;;
4766;SDS011;2397;53.576;9.746;2022-08-11T07:21:54;6.20;;;4.43;;
4766;SDS011;2397;53.576;9.746;2022-08-11T07:24:49;7.40;;;4.50;;
4766;SDS011;2397;53.576;9.746;2022-08-11T07:27:36;6.00;;;4.10;;
4766;SDS011;2397;53.576;9.746;2022-08-11T07:30:24;4.70;;;4.30;;
4766;SDS011;2397;53.576;9.746;2022-08-11T07:32:50;6.73;;;4.17;;
4766;SDS011;2397;53.576;9.746;2022-08-11T07:35:17;5.60;;;4.13;;
4766;SDS011;2397;53.576;9.746;2022-08-11T07:37:46;9.77;;;4.40;;
4766;SDS011;2397;53.576;9.746;2022-08-11T07:40:13;6.10;;;4.40;;
4766;SDS011;2397;53.576;9.746;2022-08-11T07:42:39;8.17;;;4.53;;
4766;SDS011;2397;53.576;9.746;2022-08-11T07:45:10;5.50;;;3.87;;
4766;SDS011;2397;53.576;9.746;2022-08-11T07:47:54;7.03;;;3.80;;
4766;SDS011;2397;53.576;9.746;2022-08-11T07:50:44;11.97;;;4.80;;
4766;SDS011;2397;53.576;9.746;2022-08-11T07:53:28;6.47;;;4.27;;
4766;SDS011;2397;53.576;9.746;2022-08-11T07:55:54;13.50;;;4.03;;
4766;SDS011;2397;53.576;9.746;2022-08-11T07:58:20;6.00;;;4.30;;
4766;SDS011;2397;53.576;9.746;2022-08-11T08:01:04;5.80;;;3.70;;
4766;SDS011;2397;53.576;9.746;2022-08-11T08:03:48;10.27;;;4.73;;
4766;SDS011;2397;53.576;9.746;2022-08-11T08:06:33;8.10;;;4.00;;
4766;SDS011;2397;53.576;9.746;2022-08-11T08:09:18;6.63;;;4.27;;
4766;SDS011;2397;53.576;9.746;2022-08-11T08:12:02;5.40;;;3.63;;
4766;SDS011;2397;53.576;9.746;2022-08-11T08:14:46;7.80;;;3.90;;
4766;SDS011;2397;53.576;9.746;2022-08-11T08:17:30;7.07;;;4.23;;
4766;SDS011;2397;53.576;9.746;2022-08-11T08:20:14;5.87;;;3.47;;
4766;SDS011;2397;53.576;9.746;2022-08-11T08:22:40;8.13;;;4.20;;
4766;SDS011;2397;53.576;9.746;2022-08-11T08:25:05;7.03;;;4.20;;
4766;SDS011;2397;53.576;9.746;2022-08-11T08:27:31;7.90;;;3.70;;
4766;SDS011;2397;53.576;9.746;2022-08-11T08:29:57;5.60;;;3.67;;
4766;SDS011;2397;53.576;9.746;2022-08-11T08:32:53;5.00;;;4.50;;
4766;SDS011;2397;53.576;9.746;2022-08-11T08:35:21;5.47;;;3.83;;
4766;SDS011;2397;53.576;9.746;2022-08-11T08:37:48;6.83;;;4.10;;
4766;SDS011;2397;53.576;9.746;2022-08-11T08:40:13;10.67;;;3.53;;
4766;SDS011;2397;53.576;9.746;2022-08-11T08:42:45;6.93;;;3.37;;
4766;SDS011;2397;53.576;9.746;2022-08-11T08:45:11;3.70;;;3.40;;
4766;SDS011;2397;53.576;9.746;2022-08-11T08:47:38;6.73;;;3.77;;
4766;SDS011;2397;53.576;9.746;2022-08-11T08:50:11;6.07;;;3.70;;
4766;SDS011;2397;53.576;9.746;2022-08-11T08:52:38;9.70;;;3.40;;
4766;SDS011;2397;53.576;9.746;2022-08-11T08:55:06;3.70;;;3.10;;
4766;SDS011;2397;53.576;9.746;2022-08-11T08:57:33;5.63;;;3.03;;
4766;SDS011;2397;53.576;9.746;2022-08-11T08:59:59;5.43;;;3.77;;
4766;SDS011;2397;53.576;9.746;2022-08-11T09:02:25;5.07;;;3.87;;
4766;SDS011;2397;53.576;9.746;2022-08-11T09:04:50;5.37;;;3.67;;
4766;SDS011;2397;53.576;9.746;2022-08-11T09:07:17;3.13;;;2.83;;
4766;SDS011;2397;53.576;9.746;2022-08-11T09:09:43;6.47;;;3.40;;
4766;SDS011;2397;53.576;9.746;2022-08-11T09:12:09;8.00;;;3.27;;
4766;SDS011;2397;53.576;9.746;2022-08-11T09:14:35;8.30;;;3.50;;
4766;SDS011;2397;53.576;9.746;2022-08-11T09:17:19;3.10;;;2.80;;
4766;SDS011;2397;53.576;9.746;2022-08-11T09:19:45;6.00;;;3.00;;
4766;SDS011;2397;53.576;9.746;2022-08-11T09:22:10;9.10;;;3.40;;
4766;SDS011;2397;53.576;9.746;2022-08-11T09:24:54;7.57;;;3.00;;
4766;SDS011;2397;53.576;9.746;2022-08-11T09:27:38;8.63;;;3.00;;
4766;SDS011;2397;53.576;9.746;2022-08-11T09:30:05;4.93;;;3.07;;
4766;SDS011;2397;53.576;9.746;2022-08-11T09:32:31;5.63;;;3.50;;
4766;SDS011;2397;53.576;9.746;2022-08-11T09:34:57;6.07;;;2.50;;
4766;SDS011;2397;53.576;9.746;2022-08-11T09:37:23;2.87;;;2.67;;
4766;SDS011;2397;53.576;9.746;2022-08-11T09:40:07;4.13;;;2.47;;
4766;SDS011;2397;53.576;9.746;2022-08-11T09:42:53;3.70;;;2.33;;
4766;SDS011;2397;53.576;9.746;2022-08-11T09:45:37;4.10;;;2.60;;
4766;SDS011;2397;53.576;9.746;2022-08-11T09:48:03;4.73;;;2.10;;
4766;SDS011;2397;53.576;9.746;2022-08-11T09:50:29;4.60;;;2.33;;
4766;SDS011;2397;53.576;9.746;2022-08-11T09:52:55;2.20;;;1.80;;
4766;SDS011;2397;53.576;9.746;2022-08-11T09:55:21;2.90;;;1.97;;
4766;SDS011;2397;53.576;9.746;2022-08-11T09:57:46;2.30;;;2.10;;
4766;SDS011;2397;53.576;9.746;2022-08-11T10:00:33;2.40;;;1.77;;
4766;SDS011;2397;53.576;9.746;2022-08-11T10:03:05;1.90;;;1.80;;
4766;SDS011;2397;53.576;9.746;2022-08-11T10:05:31;2.10;;;1.90;;
4766;SDS011;2397;53.576;9.746;2022-08-11T10:08:16;1.80;;;1.70;;
4766;SDS011;2397;53.576;9.746;2022-08-11T10:10:42;5.93;;;2.00;;
4766;SDS011;2397;53.576;9.746;2022-08-11T10:13:10;3.50;;;2.00;;
4766;SDS011;2397;53.576;9.746;2022-08-11T10:15:37;2.10;;;1.70;;
4766;SDS011;2397;53.576;9.746;2022-08-11T10:18:06;2.27;;;2.07;;
4766;SDS011;2397;53.576;9.746;2022-08-11T10:20:51;4.07;;;2.60;;
4766;SDS011;2397;53.576;9.746;2022-08-11T10:23:18;2.43;;;2.23;;
4766;SDS011;2397;53.576;9.746;2022-08-11T10:26:02;3.07;;;2.40;;
4766;SDS011;2397;53.576;9.746;2022-08-11T10:28:47;3.00;;;2.23;;
4766;SDS011;2397;53.576;9.746;2022-08-11T10:31:13;5.83;;;2.23;;
4766;SDS011;2397;53.576;9.746;2022-08-11T10:33:57;4.10;;;2.20;;
4766;SDS011;2397;53.576;9.746;2022-08-11T10:36:29;3.43;;;2.67;;
4766;SDS011;2397;53.576;9.746;2022-08-11T10:38:55;4.93;;;2.47;;
4766;SDS011;2397;53.576;9.746;2022-08-11T10:41:21;6.10;;;2.50;;
4766;SDS011;2397;53.576;9.746;2022-08-11T10:44:05;4.67;;;2.33;;
4766;SDS011;2397;53.576;9.746;2022-08-11T10:46:31;2.93;;;2.53;;
4766;SDS011;2397;53.576;9.746;2022-08-11T10:49:15;2.27;;;2.17;;
4766;SDS011;2397;53.576;9.746;2022-08-11T10:51:41;3.13;;;2.50;;
4766;SDS011;2397;53.576;9.746;2022-08-11T10:54:25;4.40;;;2.50;;
4766;SDS011;2397;53.576;9.746;2022-08-11T10:57:09;2.67;;;2.47;;
4766;SDS011;2397;53.576;9.746;2022-08-11T10:59:53;4.13;;;2.40;;
4766;SDS011;2397;53.576;9.746;2022-08-11T11:02:19;2.83;;;2.60;;
4766;SDS011;2397;53.576;9.746;2022-08-11T11:07:39;4.00;;;2.90;;
4766;SDS011;2397;53.576;9.746;2022-08-11T11:10:06;3.37;;;2.10;;
4766;SDS011;2397;53.576;9.746;2022-08-11T11:12:34;2.80;;;2.60;;
4766;SDS011;2397;53.576;9.746;2022-08-11T11:15:21;2.80;;;2.50;;
4766;SDS011;2397;53.576;9.746;2022-08-11T11:18:07;3.07;;;2.60;;
4766;SDS011;2397;53.576;9.746;2022-08-11T11:23:09;3.53;;;2.30;;
4766;SDS011;2397;53.576;9.746;2022-08-11T11:30:55;2.93;;;2.73;;
4766;SDS011;2397;53.576;9.746;2022-08-11T11:33:37;2.47;;;2.27;;
4766;SDS011;2397;53.576;9.746;2022-08-11T11:36:11;4.13;;;2.40;;
4766;SDS011;2397;53.576;9.746;2022-08-11T11:38:40;3.70;;;2.90;;
4766;SDS011;2397;53.576;9.746;2022-08-11T11:41:06;3.37;;;2.70;;
4766;SDS011;2397;53.576;9.746;2022-08-11T11:43:53;2.80;;;2.60;;
4766;SDS011;2397;53.576;9.746;2022-08-11T11:46:19;8.27;;;2.73;;
4766;SDS011;2397;53.576;9.746;2022-08-11T11:48:45;4.93;;;2.57;;
4766;SDS011;2397;53.576;9.746;2022-08-11T11:51:10;2.93;;;2.73;;
4766;SDS011;2397;53.576;9.746;2022-08-11T11:53:41;10.13;;;3.70;;
4766;SDS011;2397;53.576;9.746;2022-08-11T11:56:06;4.10;;;2.40;;
4766;SDS011;2397;53.576;9.746;2022-08-11T11:58:32;3.27;;;2.40;;
4766;SDS011;2397;53.576;9.746;2022-08-11T12:01:16;2.97;;;2.70;;
4766;SDS011;2397;53.576;9.746;2022-08-11T12:03:45;5.03;;;2.73;;
4766;SDS011;2397;53.576;9.746;2022-08-11T12:06:11;3.00;;;2.60;;
4766;SDS011;2397;53.576;9.746;2022-08-11T12:08:38;6.00;;;2.40;;
4766;SDS011;2397;53.576;9.746;2022-08-11T12:11:04;5.77;;;2.40;;
4766;SDS011;2397;53.576;9.746;2022-08-11T12:13:50;2.93;;;2.63;;
4766;SDS011;2397;53.576;9.746;2022-08-11T12:16:17;5.40;;;2.80;;
4766;SDS011;2397;53.576;9.746;2022-08-11T12:18:44;7.67;;;2.60;;
4766;SDS011;2397;53.576;9.746;2022-08-11T12:21:09;2.87;;;2.40;;
4766;SDS011;2397;53.576;9.746;2022-08-11T12:23:36;6.90;;;2.87;;
4766;SDS011;2397;53.576;9.746;2022-08-11T12:26:20;4.40;;;2.53;;
4766;SDS011;2397;53.576;9.746;2022-08-11T12:29:04;2.73;;;2.53;;
4766;SDS011;2397;53.576;9.746;2022-08-11T12:31:31;2.50;;;2.30;;
4766;SDS011;2397;53.576;9.746;2022-08-11T12:36:58;2.50;;;2.30;;
4766;SDS011;2397;53.576;9.746;2022-08-11T12:39:25;4.40;;;2.83;;
4766;SDS011;2397;53.576;9.746;2022-08-11T12:42:10;2.40;;;2.20;;
4766;SDS011;2397;53.576;9.746;2022-08-11T12:44:54;2.63;;;2.27;;
4766;SDS011;2397;53.576;9.746;2022-08-11T12:47:42;2.90;;;2.30;;
4766;SDS011;2397;53.576;9.746;2022-08-11T12:50:31;4.50;;;2.43;;
4766;SDS011;2397;53.576;9.746;2022-08-11T12:53:15;4.00;;;2.50;;
4766;SDS011;2397;53.576;9.746;2022-08-11T12:55:40;9.50;;;2.40;;
4766;SDS011;2397;53.576;9.746;2022-08-11T12:58:24;2.63;;;2.43;;
4766;SDS011;2397;53.576;9.746;2022-08-11T13:00:51;5.03;;;2.40;;
4766;SDS011;2397;53.576;9.746;2022-08-11T13:03:34;6.00;;;2.57;;
4766;SDS011;2397;53.576;9.746;2022-08-11T13:06:18;5.37;;;2.30;;
4766;SDS011;2397;53.576;9.746;2022-08-11T13:08:47;2.40;;;2.20;;
4766;SDS011;2397;53.576;9.746;2022-08-11T13:11:13;2.90;;;2.10;;
4766;SDS011;2397;53.576;9.746;2022-08-11T13:13:58;3.63;;;2.20;;
4766;SDS011;2397;53.576;9.746;2022-08-11T13:16:26;2.47;;;2.27;;
4766;SDS011;2397;53.576;9.746;2022-08-11T13:18:51;3.57;;;2.30;;
4766;SDS011;2397;53.576;9.746;2022-08-11T13:21:17;2.53;;;2.33;;
4766;SDS011;2397;53.576;9.746;2022-08-11T13:23:43;4.27;;;2.90;;
4766;SDS011;2397;53.576;9.746;2022-08-11T13:26:09;2.30;;;2.20;;
4766;SDS011;2397;53.576;9.746;2022-08-11T13:28:35;2.20;;;2.00;;
4766;SDS011;2397;53.576;9.746;2022-08-11T13:31:00;2.95;;;2.08;;
4766;SDS011;2397;53.576;9.746;2022-08-11T13:33:35;3.88;;;1.95;;
4766;SDS011;2397;53.576;9.746;2022-08-11T13:36:03;3.25;;;2.40;;
4766;SDS011;2397;53.576;9.746;2022-08-11T13:38:29;2.53;;;2.20;;
4766;SDS011;2397;53.576;9.746;2022-08-11T13:40:56;2.10;;;2.00;;
4766;SDS011;2397;53.576;9.746;2022-08-11T13:43:21;3.72;;;2.20;;
4766;SDS011;2397;53.576;9.746;2022-08-11T13:45:47;4.18;;;2.20;;
4766;SDS011;2397;53.576;9.746;2022-08-11T13:48:13;2.33;;;2.13;;
4766;SDS011;2397;53.576;9.746;2022-08-11T13:50:39;2.30;;;2.17;;
4766;SDS011;2397;53.576;9.746;2022-08-11T13:53:24;2.22;;;2.03;;
4766;SDS011;2397;53.576;9.746;2022-08-11T13:55:49;2.45;;;2.03;;
4766;SDS011;2397;53.576;9.746;2022-08-11T13:58:14;2.95;;;1.80;;
4766;SDS011;2397;53.576;9.746;2022-08-11T14:00:40;2.38;;;1.75;;
4766;SDS011;2397;53.576;9.746;2022-08-11T14:03:08;2.05;;;1.85;;
4766;SDS011;2397;53.576;9.746;2022-08-11T14:05:39;2.58;;;1.70;;
4766;SDS011;2397;53.576;9.746;2022-08-11T14:08:06;2.30;;;2.10;;
4766;SDS011;2397;53.576;9.746;2022-08-11T14:10:33;3.55;;;2.03;;
4766;SDS011;2397;53.576;9.746;2022-08-11T14:13:11;2.10;;;2.00;;
4766;SDS011;2397;53.576;9.746;2022-08-11T14:15:57;2.60;;;2.10;;
4766;SDS011;2397;53.576;9.746;2022-08-11T14:18:26;2.13;;;2.03;;
4766;SDS011;2397;53.576;9.746;2022-08-11T14:20:53;2.33;;;2.03;;
4766;SDS011;2397;53.576;9.746;2022-08-11T14:23:44;3.30;;;1.92;;
4766;SDS011;2397;53.576;9.746;2022-08-11T14:26:10;2.13;;;1.98;;
4766;SDS011;2397;53.576;9.746;2022-08-11T14:28:47;2.25;;;1.90;;
4766;SDS011;2397;53.576;9.746;2022-08-11T14:31:13;2.10;;;2.00;;
4766;SDS011;2397;53.576;9.746;2022-08-11T14:33:39;1.83;;;1.73;;
4766;SDS011;2397;53.576;9.746;2022-08-11T14:36:04;2.08;;;1.98;;
4766;SDS011;2397;53.576;9.746;2022-08-11T14:38:34;2.25;;;2.00;;
4766;SDS011;2397;53.576;9.746;2022-08-11T14:41:00;5.65;;;2.17;;
4766;SDS011;2397;53.576;9.746;2022-08-11T14:43:44;4.43;;;2.00;;
4766;SDS011;2397;53.576;9.746;2022-08-11T14:46:28;3.92;;;2.08;;
4766;SDS011;2397;53.576;9.746;2022-08-11T14:49:20;2.80;;;2.03;;
4766;SDS011;2397;53.576;9.746;2022-08-11T14:51:46;2.03;;;1.83;;
4766;SDS011;2397;53.576;9.746;2022-08-11T14:54:12;3.83;;;2.00;;
4766;SDS011;2397;53.576;9.746;2022-08-11T14:56:56;2.40;;;2.20;;
4766;SDS011;2397;53.576;9.746;2022-08-11T14:59:21;2.30;;;1.90;;
4766;SDS011;2397;53.576;9.746;2022-08-11T15:01:47;3.28;;;2.13;;
4766;SDS011;2397;53.576;9.746;2022-08-11T15:04:30;2.15;;;2.05;;
4766;SDS011;2397;53.576;9.746;2022-08-11T15:06:55;2.53;;;2.33;;
4766;SDS011;2397;53.576;9.746;2022-08-11T15:09:21;2.40;;;2.13;;
4766;SDS011;2397;53.576;9.746;2022-08-11T15:11:46;4.50;;;2.22;;
4766;SDS011;2397;53.576;9.746;2022-08-11T15:14:30;2.85;;;2.08;;
4766;SDS011;2397;53.576;9.746;2022-08-11T15:17:16;2.30;;;2.10;;
4766;SDS011;2397;53.576;9.746;2022-08-11T15:19:42;12.13;;;2.45;;
4766;SDS011;2397;53.576;9.746;2022-08-11T15:22:26;2.58;;;1.90;;
4766;SDS011;2397;53.576;9.746;2022-08-11T15:25:10;8.30;;;2.40;;
4766;SDS011;2397;53.576;9.746;2022-08-11T15:27:36;3.38;;;1.80;;
4766;SDS011;2397;53.576;9.746;2022-08-11T15:30:21;3.70;;;2.25;;
4766;SDS011;2397;53.576;9.746;2022-08-11T15:33:06;9.33;;;2.13;;
4766;SDS011;2397;53.576;9.746;2022-08-11T15:35:51;2.90;;;1.97;;
4766;SDS011;2397;53.576;9.746;2022-08-11T15:38:36;8.00;;;2.77;;
4766;SDS011;2397;53.576;9.746;2022-08-11T15:41:04;3.03;;;2.17;;
4766;SDS011;2397;53.576;9.746;2022-08-11T15:43:50;7.10;;;2.00;;
4766;SDS011;2397;53.576;9.746;2022-08-11T15:49:07;2.13;;;2.03;;
4766;SDS011;2397;53.576;9.746;2022-08-11T15:51:35;3.67;;;2.30;;
4766;SDS011;2397;53.576;9.746;2022-08-11T15:54:04;7.40;;;2.20;;
4766;SDS011;2397;53.576;9.746;2022-08-11T15:56:32;2.17;;;1.70;;
4766;SDS011;2397;53.576;9.746;2022-08-11T15:59:00;1.87;;;1.77;;
4766;SDS011;2397;53.576;9.746;2022-08-11T16:01:44;1.87;;;1.60;;
4766;SDS011;2397;53.576;9.746;2022-08-11T16:04:30;3.40;;;1.80;;
4766;SDS011;2397;53.576;9.746;2022-08-11T16:06:58;1.93;;;1.73;;
4766;SDS011;2397;53.576;9.746;2022-08-11T16:09:27;3.43;;;2.00;;
4766;SDS011;2397;53.576;9.746;2022-08-11T16:11:54;4.30;;;2.00;;
4766;SDS011;2397;53.576;9.746;2022-08-11T16:14:21;1.80;;;1.70;;
4766;SDS011;2397;53.576;9.746;2022-08-11T16:17:05;2.77;;;1.67;;
4766;SDS011;2397;53.576;9.746;2022-08-11T16:19:31;2.10;;;2.00;;
4766;SDS011;2397;53.576;9.746;2022-08-11T16:21:59;3.10;;;2.10;;
4766;SDS011;2397;53.576;9.746;2022-08-11T16:24:24;3.50;;;1.90;;
4766;SDS011;2397;53.576;9.746;2022-08-11T16:26:50;2.37;;;2.20;;
4766;SDS011;2397;53.576;9.746;2022-08-11T16:29:16;4.30;;;2.00;;
4766;SDS011;2397;53.576;9.746;2022-08-11T16:31:42;6.67;;;3.17;;
4766;SDS011;2397;53.576;9.746;2022-08-11T16:34:27;5.70;;;2.23;;
4766;SDS011;2397;53.576;9.746;2022-08-11T16:37:12;1.93;;;1.83;;
4766;SDS011;2397;53.576;9.746;2022-08-11T16:39:55;4.03;;;2.37;;
4766;SDS011;2397;53.576;9.746;2022-08-11T16:42:21;2.13;;;1.97;;
4766;SDS011;2397;53.576;9.746;2022-08-11T16:45:05;2.43;;;2.00;;
4766;SDS011;2397;53.576;9.746;2022-08-11T16:47:48;4.80;;;2.10;;
4766;SDS011;2397;53.576;9.746;2022-08-11T16:50:14;3.20;;;2.10;;
4766;SDS011;2397;53.576;9.746;2022-08-11T16:52:39;3.93;;;2.27;;
4766;SDS011;2397;53.576;9.746;2022-08-11T16:55:07;2.90;;;1.87;;
4766;SDS011;2397;53.576;9.746;2022-08-11T16:57:32;2.73;;;2.20;;
4766;SDS011;2397;53.576;9.746;2022-08-11T17:00:17;2.50;;;2.17;;
4766;SDS011;2397;53.576;9.746;2022-08-11T17:02:49;5.03;;;2.53;;
4766;SDS011;2397;53.576;9.746;2022-08-11T17:05:33;4.83;;;2.50;;
4766;SDS011;2397;53.576;9.746;2022-08-11T17:08:19;4.37;;;2.50;;
4766;SDS011;2397;53.576;9.746;2022-08-11T17:11:05;4.40;;;2.47;;
4766;SDS011;2397;53.576;9.746;2022-08-11T17:14:00;2.20;;;2.00;;
4766;SDS011;2397;53.576;9.746;2022-08-11T17:16:36;2.97;;;2.27;;
4766;SDS011;2397;53.576;9.746;2022-08-11T17:19:04;5.80;;;2.40;;
4766;SDS011;2397;53.576;9.746;2022-08-11T17:21:38;2.23;;;2.13;;
4766;SDS011;2397;53.576;9.746;2022-08-11T17:24:24;4.53;;;2.10;;
4766;SDS011;2397;53.576;9.746;2022-08-11T17:26:51;4.43;;;2.00;;
4766;SDS011;2397;53.576;9.746;2022-08-11T17:29:24;2.33;;;2.10;;
4766;SDS011;2397;53.576;9.746;2022-08-11T17:31:50;3.30;;;2.10;;
4766;SDS011;2397;53.576;9.746;2022-08-11T17:34:35;4.20;;;2.10;;
4766;SDS011;2397;53.576;9.746;2022-08-11T17:37:20;3.07;;;2.10;;
4766;SDS011;2397;53.576;9.746;2022-08-11T17:39:45;3.23;;;2.33;;
4766;SDS011;2397;53.576;9.746;2022-08-11T17:42:12;2.53;;;2.33;;
4766;SDS011;2397;53.576;9.746;2022-08-11T17:44:57;7.30;;;2.07;;
4766;SDS011;2397;53.576;9.746;2022-08-11T17:47:41;4.90;;;2.30;;
4766;SDS011;2397;53.576;9.746;2022-08-11T17:50:26;2.37;;;2.17;;
4766;SDS011;2397;53.576;9.746;2022-08-11T17:52:51;3.57;;;2.20;;
4766;SDS011;2397;53.576;9.746;2022-08-11T17:55:36;4.97;;;2.10;;
4766;SDS011;2397;53.576;9.746;2022-08-11T17:58:20;4.83;;;2.50;;
4766;SDS011;2397;53.576;9.746;2022-08-11T18:01:05;4.53;;;2.37;;
4766;SDS011;2397;53.576;9.746;2022-08-11T18:03:30;3.27;;;2.17;;
4766;SDS011;2397;53.576;9.746;2022-08-11T18:06:03;2.33;;;1.80;;
4766;SDS011;2397;53.576;9.746;2022-08-11T18:08:29;4.93;;;2.23;;
4766;SDS011;2397;53.576;9.746;2022-08-11T18:11:14;1.97;;;1.83;;
4766;SDS011;2397;53.576;9.746;2022-08-11T18:13:58;2.53;;;1.90;;
4766;SDS011;2397;53.576;9.746;2022-08-11T18:16:43;3.20;;;2.00;;
4766;SDS011;2397;53.576;9.746;2022-08-11T18:19:27;7.57;;;2.30;;
4766;SDS011;2397;53.576;9.746;2022-08-11T18:22:15;2.93;;;2.13;;
4766;SDS011;2397;53.576;9.746;2022-08-11T18:25:00;6.63;;;2.13;;
4766;SDS011;2397;53.576;9.746;2022-08-11T18:27:45;2.93;;;2.33;;
4766;SDS011;2397;53.576;9.746;2022-08-11T18:30:30;2.03;;;1.90;;
4766;SDS011;2397;53.576;9.746;2022-08-11T18:33:15;2.57;;;2.20;;
4766;SDS011;2397;53.576;9.746;2022-08-11T18:36:01;3.63;;;1.83;;
4766;SDS011;2397;53.576;9.746;2022-08-11T18:38:45;3.10;;;2.00;;
4766;SDS011;2397;53.576;9.746;2022-08-11T18:41:30;2.00;;;1.80;;
4766;SDS011;2397;53.576;9.746;2022-08-11T18:44:15;1.90;;;1.80;;